Time;durP1;ratioP1;P1;durP2;ratioP2;P2;SDS_P1;SDS_P2;PMS_P1;PMS_P2;Temp;Humidity;BMP_temperature;BMP_pressure;BME280_temperature;BME280_humidity;BME280_pressure;Samples;Min_cycle;Max_cycle;Signal;HPM_P1;HPM_P2
2021/06/04 00:02:06;;;;;;;2.03;1.92;;;15.70;99.90;;;;;;4942982;28;20426;-77
2021/06/04 00:04:32;;;;;;;3.07;2.10;;;15.60;99.90;;;;;;4910286;28;20440;-77
2021/06/04 00:06:58;;;;;;;2.20;2.00;;;15.70;99.90;;;;;;4962121;28;20406;-78
2021/06/04 00:09:23;;;;;;;2.40;2.22;;;15.60;99.90;;;;;;4945601;28;20466;-77
2021/06/04 00:11:51;;;;;;;2.40;2.20;;;15.50;99.90;;;;;;4921770;28;20431;-77
2021/06/04 00:14:24;;;;;;;2.25;2.05;;;15.50;99.90;;;;;;4908922;28;20481;-76
2021/06/04 00:16:55;;;;;;;2.08;1.98;;;15.40;99.90;;;;;;4939068;28;20398;-76
2021/06/04 00:19:22;;;;;;;2.88;2.40;;;15.30;99.90;;;;;;4940691;28;20395;-76
2021/06/04 00:22:08;;;;;;;1.98;1.88;;;15.40;99.90;;;;;;4930578;28;20464;-77
2021/06/04 00:24:35;;;;;;;2.30;2.20;;;15.40;99.90;;;;;;4945150;28;20411;-76
2021/06/04 00:27:01;;;;;;;2.20;2.00;;;15.30;99.90;;;;;;4943317;28;20420;-76
2021/06/04 00:29:27;;;;;;;3.45;2.63;;;15.30;99.90;;;;;;4959654;28;20404;-76
2021/06/04 00:31:53;;;;;;;2.50;2.30;;;15.30;99.90;;;;;;4933130;28;20407;-77
2021/06/04 00:34:19;;;;;;;3.23;2.30;;;15.20;99.90;;;;;;4945996;28;20414;-77
2021/06/04 00:36:45;;;;;;;2.45;2.25;;;15.30;99.90;;;;;;4909746;28;20402;-76
2021/06/04 00:39:12;;;;;;;2.65;2.45;;;15.20;99.90;;;;;;4904028;28;20429;-76
2021/06/04 00:41:49;;;;;;;2.50;2.30;;;15.10;99.90;;;;;;4926549;28;20457;-77
2021/06/04 00:44:15;;;;;;;2.20;2.00;;;15.10;99.90;;;;;;4942777;28;20389;-76
2021/06/04 00:46:41;;;;;;;2.40;2.20;;;15.10;99.90;;;;;;4957614;28;20449;-77
2021/06/04 00:49:08;;;;;;;4.70;2.30;;;15.10;99.90;;;;;;4974105;28;20414;-76
2021/06/04 00:51:39;;;;;;;2.30;2.10;;;15.10;99.90;;;;;;4936557;28;20395;-76
2021/06/04 00:54:09;;;;;;;2.35;2.17;;;15.10;99.90;;;;;;4920586;28;20539;-77
2021/06/04 00:56:37;;;;;;;2.50;2.30;;;15.00;99.90;;;;;;4950016;28;20431;-76
2021/06/04 00:59:04;;;;;;;2.55;2.35;;;15.00;99.90;;;;;;4916735;28;21083;-76
2021/06/04 01:01:31;;;;;;;2.58;2.38;;;15.00;99.90;;;;;;4929631;28;20825;-77
2021/06/04 01:04:08;;;;;;;9.98;2.53;;;15.00;99.90;;;;;;4928691;28;20418;-76
2021/06/04 01:06:40;;;;;;;2.80;2.35;;;15.00;99.90;;;;;;4957536;28;20504;-78
2021/06/04 01:09:27;;;;;;;2.67;2.42;;;14.90;99.90;;;;;;4932639;28;20401;-77
2021/06/04 01:12:11;;;;;;;2.60;2.40;;;14.90;99.90;;;;;;4942389;28;20419;-76
2021/06/04 01:14:56;;;;;;;2.60;2.40;;;14.80;99.90;;;;;;4955307;28;20427;-76
2021/06/04 01:17:43;;;;;;;2.53;2.33;;;14.80;99.90;;;;;;4946918;28;20828;-76
2021/06/04 01:20:24;;;;;;;2.70;2.50;;;14.80;99.90;;;;;;4934196;28;20456;-76
2021/06/04 01:23:15;;;;;;;2.85;2.45;;;14.70;99.90;;;;;;4922115;28;20407;-76
2021/06/04 01:25:52;;;;;;;2.78;2.58;;;14.70;99.90;;;;;;4978102;28;20405;-76
2021/06/04 01:28:28;;;;;;;2.42;2.22;;;14.70;99.90;;;;;;4912582;28;20407;-76
2021/06/04 01:31:39;;;;;;;2.88;2.63;;;14.70;99.90;;;;;;4964578;28;20401;-76
2021/06/04 01:34:07;;;;;;;3.03;2.72;;;14.70;99.90;;;;;;4936279;28;20404;-76
2021/06/04 01:36:46;;;;;;;3.33;2.58;;;14.80;99.90;;;;;;4957328;28;20492;-76
2021/06/04 01:39:37;;;;;;;2.63;2.42;;;14.80;99.90;;;;;;4949074;28;20576;-76
2021/06/04 01:42:04;;;;;;;2.83;2.63;;;14.80;99.90;;;;;;4950218;28;20410;-76
2021/06/04 01:44:38;;;;;;;2.15;2.05;;;14.70;99.90;;;;;;4945859;28;20440;-76
2021/06/04 01:47:07;;;;;;;2.40;2.20;;;14.70;99.90;;;;;;4944584;28;20412;-76
2021/06/04 01:49:37;;;;;;;4.70;2.88;;;14.70;99.90;;;;;;4926842;28;20414;-76
2021/06/04 01:52:09;;;;;;;2.90;2.60;;;14.70;99.90;;;;;;4936416;28;20420;-75
2021/06/04 01:54:56;;;;;;;3.77;2.40;;;14.70;99.90;;;;;;4932989;28;20431;-76
2021/06/04 01:57:41;;;;;;;2.88;2.65;;;14.70;99.90;;;;;;4923542;28;20463;-77
2021/06/04 02:00:11;;;;;;;2.78;2.58;;;14.80;99.90;;;;;;4934574;28;20416;-77
2021/06/04 02:02:45;;;;;;;2.63;2.42;;;14.70;99.90;;;;;;4963297;28;20410;-76
2021/06/04 02:05:24;;;;;;;2.88;2.67;;;14.70;99.90;;;;;;4925168;28;20419;-76
2021/06/04 02:07:51;;;;;;;2.90;2.47;;;14.60;99.90;;;;;;4916713;28;20497;-76
2021/06/04 02:10:26;;;;;;;2.40;2.20;;;14.60;99.90;;;;;;4946116;28;20383;-76
2021/06/04 02:12:52;;;;;;;3.00;2.63;;;14.50;99.90;;;;;;4962112;28;20431;-75
2021/06/04 02:15:42;;;;;;;2.80;2.60;;;14.60;99.90;;;;;;4956479;28;20427;-76
2021/06/04 02:18:34;;;;;;;3.70;2.25;;;14.50;99.90;;;;;;4938438;28;20847;-75
2021/06/04 02:21:15;;;;;;;3.20;2.45;;;14.50;99.90;;;;;;4929836;28;21015;-76
2021/06/04 02:23:53;;;;;;;2.85;2.65;;;14.50;99.90;;;;;;4947831;28;20432;-76
2021/06/04 02:26:28;;;;;;;3.78;2.10;;;14.50;99.90;;;;;;4917566;28;20421;-76
2021/06/04 02:29:10;;;;;;;3.78;2.45;;;14.50;99.90;;;;;;4950782;28;20469;-75
2021/06/04 02:31:40;;;;;;;2.33;2.13;;;14.50;99.90;;;;;;4910510;28;20788;-76
2021/06/04 02:34:13;;;;;;;2.90;2.70;;;14.50;99.90;;;;;;4961129;28;20921;-76
2021/06/04 02:36:45;;;;;;;3.33;2.63;;;14.50;99.90;;;;;;4956163;28;20842;-76
2021/06/04 02:39:33;;;;;;;2.90;2.70;;;14.50;99.90;;;;;;4959071;28;20971;-76
2021/06/04 02:42:16;;;;;;;2.97;2.28;;;14.50;99.90;;;;;;4957643;28;20410;-75
2021/06/04 02:44:52;;;;;;;2.90;2.38;;;14.50;99.90;;;;;;4940273;28;20996;-76
2021/06/04 02:47:25;;;;;;;2.47;2.28;;;14.40;99.90;;;;;;4959033;28;20485;-77
2021/06/04 02:49:51;;;;;;;2.60;2.40;;;14.40;99.90;;;;;;4959187;28;20405;-76
2021/06/04 02:52:30;;;;;;;2.50;2.30;;;14.30;99.90;;;;;;4925368;28;20408;-75
2021/06/04 02:54:58;;;;;;;2.50;2.30;;;14.40;99.90;;;;;;4943202;28;20447;-76
2021/06/04 02:57:26;;;;;;;2.50;2.30;;;14.30;99.90;;;;;;4943995;28;20417;-77
2021/06/04 02:59:52;;;;;;;2.65;2.45;;;14.30;99.90;;;;;;4930412;28;20408;-76
2021/06/04 03:02:25;;;;;;;2.40;2.20;;;14.30;99.90;;;;;;4946838;28;20461;-76
2021/06/04 03:05:04;;;;;;;2.53;2.33;;;14.30;99.90;;;;;;4896582;28;20413;-76
2021/06/04 03:07:32;;;;;;;3.10;2.80;;;14.40;99.90;;;;;;4955047;28;20412;-75
2021/06/04 03:10:01;;;;;;;2.63;2.42;;;14.40;99.90;;;;;;4918484;28;20777;-75
2021/06/04 03:12:33;;;;;;;2.53;2.33;;;14.40;99.90;;;;;;4927727;28;20404;-75
2021/06/04 03:14:59;;;;;;;2.78;2.58;;;14.40;99.90;;;;;;4961001;28;20433;-76
2021/06/04 03:17:30;;;;;;;3.20;2.88;;;14.40;99.90;;;;;;4934521;28;20408;-76
2021/06/04 03:19:57;;;;;;;3.63;2.80;;;14.50;99.90;;;;;;4945719;28;20924;-76
2021/06/04 03:22:29;;;;;;;2.67;2.47;;;14.50;99.90;;;;;;4948347;28;20398;-76
2021/06/04 03:25:00;;;;;;;2.70;2.50;;;14.60;99.90;;;;;;4931737;28;20410;-76
2021/06/04 03:27:26;;;;;;;2.80;2.60;;;14.60;99.90;;;;;;4892960;28;20397;-76
2021/06/04 03:29:52;;;;;;;2.83;2.40;;;14.60;99.90;;;;;;4923065;28;20399;-76
2021/06/04 03:32:18;;;;;;;3.08;2.80;;;14.70;99.90;;;;;;4941425;28;21172;-77
2021/06/04 03:34:45;;;;;;;2.60;2.40;;;14.70;99.90;;;;;;4956439;28;20480;-76
2021/06/04 03:37:12;;;;;;;2.78;2.58;;;14.70;99.90;;;;;;4944768;28;20508;-75
2021/06/04 03:39:40;;;;;;;2.90;2.60;;;14.70;99.90;;;;;;4929818;28;20398;-76
2021/06/04 03:42:10;;;;;;;2.80;2.60;;;14.80;99.90;;;;;;4924795;28;20402;-76
2021/06/04 03:44:37;;;;;;;3.15;2.85;;;14.80;99.90;;;;;;4912684;28;20976;-76
2021/06/04 03:47:04;;;;;;;2.60;2.38;;;14.80;99.90;;;;;;4925811;28;20462;-76
2021/06/04 03:49:33;;;;;;;2.58;2.38;;;14.80;99.90;;;;;;4931072;28;20468;-76
2021/06/04 03:51:59;;;;;;;2.70;2.50;;;14.80;99.90;;;;;;4951001;28;20388;-77
2021/06/04 03:54:30;;;;;;;3.58;2.67;;;14.80;99.90;;;;;;4962956;28;20424;-76
2021/06/04 03:56:58;;;;;;;2.95;2.70;;;14.80;99.90;;;;;;4923343;28;20452;-76
2021/06/04 03:59:24;;;;;;;3.38;2.72;;;14.90;99.90;;;;;;4947625;28;20445;-76
2021/06/04 04:01:53;;;;;;;2.80;2.47;;;14.90;99.90;;;;;;4934405;28;20406;-76
2021/06/04 04:04:19;;;;;;;2.80;2.60;;;14.90;99.90;;;;;;4949787;28;20481;-76
2021/06/04 04:06:45;;;;;;;3.53;2.67;;;14.90;99.90;;;;;;4941460;28;20857;-76
2021/06/04 04:09:10;;;;;;;3.47;2.92;;;14.90;99.90;;;;;;4912419;28;20401;-76
2021/06/04 04:11:37;;;;;;;4.30;2.53;;;14.90;99.90;;;;;;4940129;28;20779;-76
2021/06/04 04:14:03;;;;;;;2.97;2.50;;;15.00;99.90;;;;;;4929316;28;20407;-76
2021/06/04 04:16:29;;;;;;;2.63;2.43;;;15.00;99.90;;;;;;4927823;28;20481;-76
2021/06/04 04:18:54;;;;;;;2.60;2.40;;;15.00;99.90;;;;;;4933458;28;20752;-76
2021/06/04 04:21:20;;;;;;;2.60;2.40;;;15.00;99.90;;;;;;4922577;28;20416;-76
2021/06/04 04:23:52;;;;;;;2.70;2.50;;;15.10;99.90;;;;;;4912079;28;20431;-76
2021/06/04 04:26:19;;;;;;;2.95;2.63;;;15.10;99.90;;;;;;4925139;28;20414;-77
2021/06/04 04:28:45;;;;;;;2.67;2.47;;;15.20;99.90;;;;;;4932405;28;20404;-76
2021/06/04 04:31:14;;;;;;;2.70;2.50;;;15.10;99.90;;;;;;4917148;28;20419;-77
2021/06/04 04:33:40;;;;;;;2.83;2.58;;;15.20;99.90;;;;;;4954757;28;20458;-76
2021/06/04 04:36:06;;;;;;;2.80;2.60;;;15.20;99.90;;;;;;4945898;28;20443;-76
2021/06/04 04:38:33;;;;;;;3.05;2.75;;;15.30;99.90;;;;;;4956343;28;21019;-76
2021/06/04 04:41:01;;;;;;;2.60;2.40;;;15.50;99.90;;;;;;4938255;28;20416;-76
2021/06/04 04:43:28;;;;;;;2.63;2.43;;;15.50;99.90;;;;;;4950431;28;20411;-76
2021/06/04 04:45:53;;;;;;;3.53;2.88;;;15.50;99.90;;;;;;4928391;28;20418;-76
2021/06/04 04:48:19;;;;;;;3.47;2.55;;;15.60;99.90;;;;;;4944515;28;20525;-77
2021/06/04 04:50:45;;;;;;;3.03;2.73;;;15.70;99.90;;;;;;4947897;28;21383;-77
2021/06/04 04:53:11;;;;;;;4.78;2.83;;;15.70;99.90;;;;;;4936970;28;20405;-77
2021/06/04 04:55:38;;;;;;;2.80;2.60;;;15.80;99.90;;;;;;4947245;28;20481;-78
2021/06/04 04:58:05;;;;;;;2.83;2.63;;;15.80;99.90;;;;;;4944659;28;20414;-77
2021/06/04 05:00:30;;;;;;;2.92;2.70;;;15.80;99.90;;;;;;4958027;28;20746;-77
2021/06/04 05:02:56;;;;;;;2.53;2.33;;;15.90;99.90;;;;;;4945001;28;20468;-77
2021/06/04 05:05:23;;;;;;;3.00;2.73;;;16.00;99.90;;;;;;4925920;28;20920;-77
2021/06/04 05:07:49;;;;;;;3.30;2.70;;;16.00;99.90;;;;;;4938733;28;20409;-77
2021/06/04 05:10:14;;;;;;;3.97;3.03;;;16.10;99.90;;;;;;4925047;28;20449;-77
2021/06/04 05:12:40;;;;;;;3.30;2.60;;;16.10;99.90;;;;;;4946892;28;20908;-76
2021/06/04 05:15:08;;;;;;;2.77;2.57;;;16.10;99.90;;;;;;4930702;28;20406;-76
2021/06/04 05:17:33;;;;;;;3.08;2.78;;;16.10;99.90;;;;;;4919811;28;20403;-77
2021/06/04 05:20:00;;;;;;;2.63;2.42;;;16.10;99.90;;;;;;4947003;28;20923;-78
2021/06/04 05:22:25;;;;;;;2.92;2.60;;;16.20;99.90;;;;;;4945367;28;20406;-78
2021/06/04 05:24:51;;;;;;;3.57;2.80;;;16.20;99.90;;;;;;4932874;28;20766;-78
2021/06/04 05:27:20;;;;;;;3.67;2.80;;;16.20;99.90;;;;;;4931854;28;20957;-78
2021/06/04 05:29:45;;;;;;;3.88;3.38;;;16.20;99.90;;;;;;4932228;28;20394;-78
2021/06/04 05:32:11;;;;;;;3.75;3.00;;;16.20;99.90;;;;;;4965200;28;21164;-77
2021/06/04 05:34:37;;;;;;;2.70;2.50;;;16.10;99.90;;;;;;4957234;28;20495;-78
2021/06/04 05:37:04;;;;;;;2.90;2.60;;;16.10;99.90;;;;;;4937460;28;20403;-77
2021/06/04 05:39:30;;;;;;;3.10;2.80;;;16.00;99.90;;;;;;4958161;28;20401;-78
2021/06/04 05:42:00;;;;;;;2.70;2.50;;;16.00;99.90;;;;;;4935170;28;20401;-78
2021/06/04 05:44:27;;;;;;;3.20;2.90;;;16.00;99.90;;;;;;4932451;28;20448;-78
2021/06/04 05:46:54;;;;;;;3.35;2.92;;;15.90;99.90;;;;;;4932297;28;20903;-79
2021/06/04 05:49:21;;;;;;;3.08;2.80;;;15.90;99.90;;;;;;4939446;28;20461;-78
2021/06/04 05:51:47;;;;;;;2.97;2.67;;;15.90;99.90;;;;;;4948412;28;20432;-78
2021/06/04 05:54:13;;;;;;;3.67;3.00;;;15.80;99.90;;;;;;4937706;28;20534;-79
2021/06/04 05:56:38;;;;;;;3.13;2.83;;;15.80;99.90;;;;;;4913927;28;20422;-79
2021/06/04 05:59:04;;;;;;;3.78;2.53;;;15.80;99.90;;;;;;4918471;28;20395;-78
2021/06/04 06:01:32;;;;;;;3.27;2.97;;;15.80;99.90;;;;;;4926318;28;20479;-78
2021/06/04 06:03:57;;;;;;;2.95;2.72;;;15.70;99.90;;;;;;4932918;28;20419;-77
2021/06/04 06:06:23;;;;;;;3.23;2.93;;;15.60;99.90;;;;;;4962585;28;20394;-78
2021/06/04 06:08:49;;;;;;;2.97;2.78;;;15.60;99.90;;;;;;4949744;28;20815;-78
2021/06/04 06:11:16;;;;;;;3.23;2.93;;;15.50;99.90;;;;;;4957023;28;20462;-78
2021/06/04 06:13:42;;;;;;;4.33;3.27;;;15.60;99.90;;;;;;4938729;28;20486;-77
2021/06/04 06:16:08;;;;;;;3.30;3.00;;;15.50;99.90;;;;;;4938483;28;20952;-77
2021/06/04 06:18:34;;;;;;;3.97;3.10;;;15.50;99.90;;;;;;4935467;28;20399;-78
2021/06/04 06:20:59;;;;;;;3.15;2.88;;;15.50;99.90;;;;;;4945650;28;20408;-78
2021/06/04 06:23:29;;;;;;;3.78;2.80;;;15.50;99.90;;;;;;4955443;28;20478;-78
2021/06/04 06:26:03;;;;;;;2.75;2.55;;;15.60;99.90;;;;;;4939530;28;20401;-78
2021/06/04 06:28:33;;;;;;;2.90;2.67;;;15.50;99.90;;;;;;4945981;28;20422;-78
2021/06/04 06:30:59;;;;;;;4.32;3.00;;;15.50;99.90;;;;;;4919509;28;20406;-78
2021/06/04 06:33:25;;;;;;;2.80;2.55;;;15.60;99.90;;;;;;4965203;28;20398;-77
2021/06/04 06:35:56;;;;;;;3.70;3.13;;;15.60;99.90;;;;;;4935914;28;20436;-80
2021/06/04 06:38:22;;;;;;;4.25;3.22;;;15.60;99.90;;;;;;4951403;28;20438;-81
2021/06/04 06:40:48;;;;;;;3.50;3.20;;;15.70;99.90;;;;;;4924840;28;20556;-77
2021/06/04 06:43:14;;;;;;;4.10;3.47;;;15.70;99.90;;;;;;4947129;28;20503;-78
2021/06/04 06:45:40;;;;;;;4.65;3.35;;;15.70;99.90;;;;;;4930460;28;20900;-77
2021/06/04 06:48:05;;;;;;;6.78;2.88;;;15.70;99.90;;;;;;4935627;28;20409;-77
2021/06/04 06:50:31;;;;;;;3.90;3.33;;;15.70;99.90;;;;;;4928679;28;20942;-76
2021/06/04 06:53:02;;;;;;;4.15;3.40;;;15.70;99.90;;;;;;4930436;28;20430;-76
2021/06/04 06:55:29;;;;;;;4.05;3.20;;;15.60;99.90;;;;;;4937303;28;20423;-77
2021/06/04 06:57:55;;;;;;;3.50;3.20;;;15.60;99.90;;;;;;4963704;28;20425;-77
2021/06/04 07:00:43;;;;;;;3.60;3.30;;;15.60;99.90;;;;;;4913552;28;20412;-77
2021/06/04 07:03:09;;;;;;;3.75;3.45;;;15.60;99.90;;;;;;4930991;28;20408;-76
2021/06/04 07:05:35;;;;;;;3.40;3.10;;;15.60;99.90;;;;;;4952498;28;21362;-76
2021/06/04 07:08:01;;;;;;;3.15;2.85;;;15.60;99.90;;;;;;4917617;28;20406;-76
2021/06/04 07:10:28;;;;;;;4.00;3.33;;;15.60;99.90;;;;;;4930784;28;20936;-76
2021/06/04 07:12:56;;;;;;;3.67;3.38;;;15.60;99.90;;;;;;4936758;28;20443;-77
2021/06/04 07:15:21;;;;;;;3.33;3.03;;;15.60;99.90;;;;;;4928839;28;20930;-77
2021/06/04 07:17:47;;;;;;;3.37;3.07;;;15.60;99.90;;;;;;4930187;28;20402;-77
2021/06/04 07:20:15;;;;;;;3.90;3.22;;;15.60;99.90;;;;;;4930180;28;20466;-77
2021/06/04 07:22:40;;;;;;;3.00;2.80;;;15.60;99.90;;;;;;4932654;28;20409;-77
2021/06/04 07:25:08;;;;;;;3.27;3.07;;;15.60;99.90;;;;;;4936821;28;20398;-77
2021/06/04 07:27:34;;;;;;;4.93;3.60;;;15.70;99.90;;;;;;4946575;28;20413;-78
2021/06/04 07:29:59;;;;;;;3.42;3.13;;;15.70;99.90;;;;;;4948638;28;20420;-77
2021/06/04 07:32:25;;;;;;;4.40;3.58;;;15.80;99.90;;;;;;4947728;28;20767;-77
2021/06/04 07:34:51;;;;;;;3.53;3.23;;;15.80;99.90;;;;;;4942220;28;21026;-78
2021/06/04 07:37:16;;;;;;;4.22;3.63;;;15.90;99.90;;;;;;4932680;28;20401;-78
2021/06/04 07:39:42;;;;;;;3.55;3.25;;;15.90;99.90;;;;;;4946464;28;20511;-77
2021/06/04 07:42:09;;;;;;;5.10;3.50;;;15.90;99.90;;;;;;4932151;28;20397;-78
2021/06/04 07:44:35;;;;;;;3.40;3.10;;;15.90;99.90;;;;;;4927937;28;20549;-77
2021/06/04 07:47:00;;;;;;;5.88;3.50;;;15.90;99.90;;;;;;4938653;28;20405;-78
2021/06/04 07:49:26;;;;;;;3.70;3.40;;;16.00;99.90;;;;;;4933760;28;20402;-78
2021/06/04 07:51:56;;;;;;;3.38;3.10;;;16.10;99.90;;;;;;4961091;28;20808;-77
2021/06/04 07:54:24;;;;;;;3.60;3.30;;;16.20;99.90;;;;;;4950927;28;20809;-78
2021/06/04 07:56:49;;;;;;;4.13;3.70;;;16.30;99.90;;;;;;4942075;28;20493;-78
2021/06/04 07:59:15;;;;;;;4.05;3.38;;;16.40;99.90;;;;;;4927962;28;20488;-78
2021/06/04 08:01:41;;;;;;;3.57;3.00;;;16.50;99.90;;;;;;4950740;28;20418;-77
2021/06/04 08:04:07;;;;;;;5.57;3.53;;;16.70;99.90;;;;;;4955988;28;20605;-77
2021/06/04 08:06:33;;;;;;;3.95;3.60;;;16.80;99.90;;;;;;4954547;28;20523;-78
2021/06/04 08:08:58;;;;;;;3.97;3.30;;;17.00;99.90;;;;;;4940165;28;20493;-78
2021/06/04 08:11:34;;;;;;;3.70;3.28;;;17.20;99.90;;;;;;4943715;28;20402;-78
2021/06/04 08:14:04;;;;;;;3.80;3.40;;;17.40;99.90;;;;;;4932940;28;20402;-78
2021/06/04 08:16:30;;;;;;;3.70;3.40;;;17.60;99.90;;;;;;4929678;28;20476;-78
2021/06/04 08:18:56;;;;;;;4.03;3.60;;;17.70;99.90;;;;;;4947174;28;20396;-78
2021/06/04 08:21:24;;;;;;;4.10;3.70;;;17.90;99.90;;;;;;4933581;28;20400;-77
2021/06/04 08:23:50;;;;;;;7.57;3.47;;;18.10;99.90;;;;;;4928134;28;20406;-79
2021/06/04 08:26:26;;;;;;;3.90;3.10;;;18.20;99.90;;;;;;4927212;28;20491;-77
2021/06/04 08:28:52;;;;;;;3.40;3.10;;;18.40;99.90;;;;;;4928094;28;20425;-78
2021/06/04 08:31:18;;;;;;;3.42;3.13;;;18.40;99.90;;;;;;4944814;28;20398;-78
2021/06/04 08:33:44;;;;;;;5.18;3.63;;;18.50;99.90;;;;;;4927676;28;20469;-78
2021/06/04 08:36:13;;;;;;;3.65;3.28;;;18.60;99.90;;;;;;4945748;28;20664;-78
2021/06/04 08:38:41;;;;;;;3.38;3.08;;;18.80;99.90;;;;;;4933514;28;20456;-77
2021/06/04 08:41:34;;;;;;;3.15;2.85;;;18.80;99.90;;;;;;4931185;28;20398;-79
2021/06/04 08:44:13;;;;;;;2.97;2.77;;;19.00;99.90;;;;;;4943589;28;20495;-78
2021/06/04 08:46:48;;;;;;;3.58;2.95;;;19.10;99.90;;;;;;4953688;28;20442;-78
2021/06/04 08:49:26;;;;;;;3.28;2.97;;;19.40;99.90;;;;;;4958831;28;20740;-77
2021/06/04 08:52:04;;;;;;;3.93;3.00;;;19.50;99.90;;;;;;4928713;28;20408;-77
2021/06/04 08:54:54;;;;;;;3.03;2.63;;;19.70;99.90;;;;;;4927497;28;20913;-77
2021/06/04 08:57:20;;;;;;;2.95;2.75;;;19.90;99.90;;;;;;4952612;28;20490;-78
2021/06/04 08:59:46;;;;;;;3.73;2.93;;;20.00;99.90;;;;;;4927948;28;20589;-79
2021/06/04 09:02:20;;;;;;;2.87;2.57;;;20.20;99.90;;;;;;4943663;28;20394;-78
2021/06/04 09:04:55;;;;;;;3.03;2.72;;;20.40;99.90;;;;;;4932437;28;20824;-78
2021/06/04 09:07:23;;;;;;;3.25;2.95;;;20.60;99.90;;;;;;4966134;28;20386;-78
2021/06/04 09:10:27;;;;;;;3.08;2.83;;;20.80;99.90;;;;;;4938389;28;20405;-79
2021/06/04 09:13:20;;;;;;;4.23;3.07;;;21.00;99.90;;;;;;4935061;28;20467;-78
2021/06/04 09:15:46;;;;;;;2.92;2.72;;;21.20;99.90;;;;;;4919113;28;20413;-78
2021/06/04 09:18:16;;;;;;;2.95;2.47;;;21.20;99.90;;;;;;4935181;28;20539;-79
2021/06/04 09:20:50;;;;;;;3.70;3.05;;;21.40;99.90;;;;;;4978889;28;20406;-78
2021/06/04 09:23:21;;;;;;;2.60;2.40;;;21.40;99.90;;;;;;4965682;28;20492;-78
2021/06/04 09:25:47;;;;;;;2.75;2.53;;;21.40;99.90;;;;;;4942375;28;20504;-78
2021/06/04 09:28:12;;;;;;;3.20;2.60;;;21.50;99.90;;;;;;4939407;28;20486;-79
2021/06/04 09:30:43;;;;;;;3.30;2.67;;;21.70;99.90;;;;;;4979408;28;20413;-78
2021/06/04 09:33:17;;;;;;;2.97;2.40;;;21.80;99.90;;;;;;4931139;28;20900;-78
2021/06/04 09:36:07;;;;;;;2.57;2.37;;;21.90;99.90;;;;;;4976511;28;20436;-78
2021/06/04 09:38:43;;;;;;;2.27;2.17;;;22.20;99.90;;;;;;4949304;28;20417;-78
2021/06/04 09:41:27;;;;;;;3.47;2.70;;;22.40;99.90;;;;;;4950565;28;20400;-79
2021/06/04 09:44:21;;;;;;;2.80;2.60;;;22.40;99.90;;;;;;4966923;28;20426;-79
2021/06/04 09:46:55;;;;;;;2.37;2.17;;;22.50;99.90;;;;;;4943804;28;20433;-78
2021/06/04 09:49:31;;;;;;;2.75;2.55;;;22.80;99.90;;;;;;4944491;28;20404;-78
2021/06/04 09:52:15;;;;;;;2.95;2.47;;;22.90;99.90;;;;;;4939353;28;20413;-78
2021/06/04 09:54:41;;;;;;;2.42;2.22;;;22.80;99.90;;;;;;4933840;28;20398;-78
2021/06/04 09:57:12;;;;;;;2.90;2.70;;;22.90;99.90;;;;;;4940753;28;20738;-78
2021/06/04 09:59:38;;;;;;;3.60;2.70;;;22.90;99.90;;;;;;4943923;28;20427;-78
2021/06/04 21:51:50;;;;;;;3.35;3.05;;;15.70;99.90;;;;;;5090874;27;20422;-89
2021/06/04 21:54:16;;;;;;;3.05;2.80;;;15.50;99.90;;;;;;5076508;28;20429;-90
2021/06/04 21:56:42;;;;;;;3.27;3.07;;;15.50;99.90;;;;;;5047323;28;20379;-88
2021/06/04 21:59:08;;;;;;;3.10;2.90;;;15.50;99.90;;;;;;5032253;28;20419;-85
2021/06/04 22:01:34;;;;;;;3.17;2.97;;;15.60;99.90;;;;;;5012768;28;20422;-81
2021/06/04 22:04:08;;;;;;;4.27;3.40;;;15.60;99.90;;;;;;5007736;28;20919;-85
2021/06/04 22:06:34;;;;;;;4.25;3.85;;;15.50;99.90;;;;;;4991764;28;21050;-82
2021/06/04 22:09:00;;;;;;;3.28;3.05;;;15.50;99.90;;;;;;4986422;28;20419;-85
2021/06/04 22:11:28;;;;;;;3.57;3.27;;;15.50;99.90;;;;;;5003502;28;20407;-82
2021/06/04 22:13:54;;;;;;;3.47;3.20;;;15.50;99.90;;;;;;5008282;28;20407;-81
2021/06/04 22:16:19;;;;;;;3.40;3.10;;;15.50;99.90;;;;;;4979610;28;20512;-84
2021/06/04 22:18:45;;;;;;;5.75;3.40;;;15.40;99.90;;;;;;4978433;28;20430;-82
2021/06/04 22:21:12;;;;;;;2.80;2.60;;;15.40;99.90;;;;;;5009333;28;20555;-82
2021/06/04 22:23:38;;;;;;;5.20;2.80;;;15.30;99.90;;;;;;5010307;28;20429;-84
2021/06/04 22:26:12;;;;;;;5.23;2.70;;;15.40;99.90;;;;;;5025831;28;20814;-81
2021/06/04 22:28:44;;;;;;;2.88;2.67;;;15.40;99.90;;;;;;4981217;28;20406;-82
2021/06/04 22:31:13;;;;;;;3.42;3.15;;;15.30;99.90;;;;;;5007129;28;20498;-87
2021/06/04 22:33:38;;;;;;;3.33;3.03;;;15.40;99.90;;;;;;5002546;28;20403;-83
2021/06/04 22:36:06;;;;;;;4.40;3.10;;;15.30;99.90;;;;;;5030295;28;20410;-87
2021/06/04 22:38:32;;;;;;;3.33;3.03;;;15.20;99.90;;;;;;5013559;28;20929;-82
2021/06/04 22:40:58;;;;;;;3.30;3.00;;;15.20;99.90;;;;;;5024117;28;20417;-85
2021/06/04 22:43:23;;;;;;;3.73;3.43;;;15.20;99.90;;;;;;5019355;28;20401;-87
2021/06/04 22:45:49;;;;;;;3.20;2.90;;;15.20;99.90;;;;;;5021759;28;20442;-84
2021/06/04 22:48:15;;;;;;;3.63;3.17;;;15.20;99.90;;;;;;5011134;28;20422;-83
2021/06/04 22:50:40;;;;;;;3.28;2.97;;;15.20;99.90;;;;;;5026900;28;20454;-83
2021/06/04 22:53:08;;;;;;;3.33;2.70;;;15.20;99.90;;;;;;5017223;28;20488;-83
2021/06/04 22:55:35;;;;;;;3.13;2.83;;;15.20;99.90;;;;;;5010814;28;20436;-83
2021/06/04 22:58:01;;;;;;;3.10;2.80;;;15.20;99.90;;;;;;5018934;28;20442;-82
2021/06/04 23:00:32;;;;;;;3.10;2.90;;;15.10;99.90;;;;;;4988241;28;20544;-81
2021/06/04 23:02:58;;;;;;;4.03;3.03;;;15.10;99.90;;;;;;5052734;28;20441;-83
2021/06/04 23:05:24;;;;;;;3.00;2.80;;;15.10;99.90;;;;;;5038608;28;20379;-84
2021/06/04 23:07:50;;;;;;;3.00;2.80;;;15.20;99.90;;;;;;5053864;28;20407;-85
2021/06/04 23:10:20;;;;;;;3.40;3.10;;;15.10;99.90;;;;;;5015125;28;20475;-87
2021/06/04 23:12:46;;;;;;;3.42;3.13;;;15.00;99.90;;;;;;5018808;28;20411;-83
2021/06/04 23:15:12;;;;;;;2.83;2.63;;;15.00;99.90;;;;;;5002840;28;20433;-80
2021/06/04 23:17:37;;;;;;;2.87;2.67;;;15.00;99.90;;;;;;5019329;28;20395;-88
2021/06/04 23:20:05;;;;;;;3.88;3.00;;;15.00;99.90;;;;;;4993948;28;20424;-82
2021/06/04 23:22:31;;;;;;;3.83;3.30;;;15.00;99.90;;;;;;5049413;28;20405;-88
2021/06/04 23:24:56;;;;;;;3.03;2.83;;;14.90;99.90;;;;;;5052297;28;20391;-86
2021/06/04 23:27:22;;;;;;;3.10;2.90;;;15.00;99.90;;;;;;5051732;28;20383;-80
2021/06/04 23:29:48;;;;;;;3.30;2.83;;;14.90;99.90;;;;;;5035623;28;21134;-81
2021/06/04 23:32:13;;;;;;;2.90;2.70;;;14.90;99.90;;;;;;5018877;28;20978;-84
2021/06/04 23:34:39;;;;;;;2.78;2.58;;;14.80;99.90;;;;;;5036419;28;20403;-86
2021/06/04 23:37:05;;;;;;;3.05;2.80;;;14.80;99.90;;;;;;5038787;28;20915;-84
2021/06/04 23:39:31;;;;;;;3.20;2.90;;;14.80;99.90;;;;;;5028232;28;20457;-88
2021/06/04 23:41:56;;;;;;;2.90;2.70;;;14.70;99.90;;;;;;5060801;28;20510;-89
2021/06/04 23:44:23;;;;;;;3.55;2.92;;;14.70;99.90;;;;;;5043829;28;20534;-86
2021/06/04 23:46:49;;;;;;;3.28;3.08;;;14.70;99.90;;;;;;5063234;28;20445;-91
2021/06/04 23:49:14;;;;;;;3.10;2.80;;;14.60;99.90;;;;;;5064165;28;20407;-89
2021/06/04 23:51:40;;;;;;;3.47;3.17;;;14.50;99.90;;;;;;5061448;28;20411;-86
2021/06/04 23:54:06;;;;;;;3.75;3.45;;;14.60;99.90;;;;;;5062699;28;20391;-90
2021/06/04 23:56:31;;;;;;;3.70;3.30;;;14.60;99.90;;;;;;5060729;28;20395;-87
2021/06/04 23:58:57;;;;;;;3.60;3.28;;;14.60;99.90;;;;;;5045557;28;20597;-88
